createdAt,value
2022-12-13T00:00:47.839Z,2.70
2022-12-13T00:03:14.995Z,2.42
2022-12-13T00:05:45.180Z,2.83
2022-12-13T00:08:12.588Z,2.65
2022-12-13T00:10:39.348Z,2.63
2022-12-13T00:13:06.071Z,2.60
2022-12-13T00:15:33.037Z,2.95
2022-12-13T00:17:59.850Z,2.38
2022-12-13T00:20:26.595Z,2.75
2022-12-13T00:22:53.525Z,2.53
2022-12-13T00:25:21.402Z,2.80
2022-12-13T00:27:48.191Z,2.42
2022-12-13T00:30:14.958Z,2.95
2022-12-13T00:32:41.734Z,2.80
2022-12-13T00:35:08.662Z,2.72
2022-12-13T00:37:35.398Z,2.53
2022-12-13T00:40:02.125Z,2.60
2022-12-13T00:42:28.893Z,2.70
2022-12-13T00:44:55.894Z,2.67
2022-12-13T00:47:23.498Z,2.63
2022-12-13T00:49:50.202Z,2.65
2022-12-13T00:52:16.933Z,2.50
2022-12-13T00:54:43.741Z,2.67
2022-12-13T00:57:10.450Z,3.35
2022-12-13T00:59:37.120Z,3.33
2022-12-13T01:02:03.979Z,2.35
2022-12-13T01:04:30.678Z,2.63
2022-12-13T01:06:57.490Z,2.85
2022-12-13T01:09:27.452Z,3.10
2022-12-13T01:12:05.288Z,3.15
2022-12-13T01:14:32.153Z,2.72
2022-12-13T01:16:59.008Z,3.08
2022-12-13T01:19:26.640Z,3.10
2022-12-13T01:21:57.522Z,3.17
2022-12-13T01:24:26.778Z,3.13
2022-12-13T01:26:57.197Z,2.90
2022-12-13T01:29:24.362Z,3.33
2022-12-13T01:31:53.025Z,2.90
2022-12-13T01:34:20.692Z,3.60
2022-12-13T01:36:47.709Z,3.53
2022-12-13T01:39:16.286Z,3.38
2022-12-13T01:41:48.289Z,3.13
2022-12-13T01:44:52.599Z,3.38
2022-12-13T01:49:54.541Z,3.17
2022-12-13T01:52:21.636Z,3.00
2022-12-13T01:54:50.095Z,3.60
2022-12-13T01:57:17.789Z,3.67
2022-12-13T01:59:44.476Z,3.70
2022-12-13T02:02:12.128Z,3.85
2022-12-13T02:04:55.598Z,3.60
2022-12-13T02:07:29.244Z,3.00
2022-12-13T02:09:57.927Z,3.50
2022-12-13T02:12:29.617Z,3.78
2022-12-13T02:15:12.204Z,3.07
2022-12-13T02:17:55.233Z,3.53
2022-12-13T02:20:46.162Z,2.88
2022-12-13T02:23:41.340Z,3.50
2022-12-13T02:26:39.117Z,2.92
2022-12-13T02:29:30.499Z,3.47
2022-12-13T02:32:08.556Z,3.65
2022-12-13T02:34:40.813Z,3.05
2022-12-13T02:37:30.778Z,3.00
2022-12-13T02:40:05.467Z,2.90
2022-12-13T02:42:37.424Z,3.28
2022-12-13T02:45:30.245Z,2.90
2022-12-13T02:47:57.532Z,2.88
2022-12-13T02:50:24.436Z,3.05
2022-12-13T02:52:51.207Z,3.03
2022-12-13T02:55:18.367Z,3.72
2022-12-13T02:57:45.632Z,3.42
2022-12-13T03:00:47.164Z,3.13
2022-12-13T03:03:42.174Z,3.00
2022-12-13T03:06:33.317Z,3.33
2022-12-13T03:09:10.060Z,2.78
2022-12-13T03:12:34.594Z,3.33
2022-12-13T03:15:21.147Z,2.42
2022-12-13T03:17:53.811Z,2.88
2022-12-13T03:20:24.224Z,3.60
2022-12-13T03:22:52.722Z,2.83
2022-12-13T03:25:30.766Z,3.65
2022-12-13T03:28:01.192Z,2.70
2022-12-13T03:30:29.982Z,3.58
2022-12-13T03:32:56.710Z,2.83
2022-12-13T03:35:25.149Z,3.10
2022-12-13T03:38:02.218Z,2.47
2022-12-13T03:40:29.492Z,3.08
2022-12-13T03:42:57.098Z,3.03
2022-12-13T03:45:23.975Z,3.33
2022-12-13T03:47:51.195Z,2.90
2022-12-13T03:50:28.387Z,2.67
2022-12-13T03:53:01.473Z,3.00
2022-12-13T03:55:28.650Z,2.80
2022-12-13T03:57:55.567Z,2.72
2022-12-13T04:00:22.481Z,3.00
2022-12-13T04:02:49.250Z,3.42
2022-12-13T04:05:16.472Z,2.80
2022-12-13T04:07:48.140Z,2.80
2022-12-13T04:10:25.501Z,3.13
2022-12-13T04:13:12.138Z,3.28
2022-12-13T04:15:39.402Z,2.50
2022-12-13T04:18:06.465Z,2.92
2022-12-13T04:20:33.183Z,2.55
2022-12-13T04:22:59.980Z,2.88
2022-12-13T04:25:27.116Z,2.70
2022-12-13T04:27:54.282Z,2.45
2022-12-13T04:30:21.011Z,2.05
2022-12-13T04:32:48.152Z,2.60
2022-12-13T04:35:15.232Z,2.40
2022-12-13T04:37:43.381Z,2.60
2022-12-13T04:40:10.952Z,2.65
2022-12-13T04:42:37.705Z,2.00
2022-12-13T04:45:06.152Z,2.55
2022-12-13T04:47:33.430Z,2.13
2022-12-13T04:50:00.255Z,1.73
2022-12-13T04:52:27.577Z,2.40
2022-12-13T04:54:55.833Z,2.17
2022-12-13T04:57:23.279Z,2.17
2022-12-13T04:59:50.230Z,1.80
2022-12-13T05:02:23.607Z,2.40
2022-12-13T05:04:53.928Z,2.20
2022-12-13T05:07:22.055Z,1.90
2022-12-13T05:09:49.181Z,2.05
2022-12-13T05:12:22.718Z,1.40
2022-12-13T05:14:51.545Z,1.70
2022-12-13T05:17:18.535Z,1.88
2022-12-13T05:19:45.682Z,1.30
2022-12-13T05:22:19.712Z,1.67
2022-12-13T05:24:47.438Z,1.65
2022-12-13T05:27:23.740Z,1.92
2022-12-13T05:30:03.225Z,1.73
2022-12-13T05:32:43.919Z,1.80
2022-12-13T05:35:22.196Z,1.67
2022-12-13T05:37:54.174Z,1.73
2022-12-13T05:40:28.670Z,1.70
2022-12-13T05:43:01.363Z,1.63
2022-12-13T05:45:29.711Z,1.83
2022-12-13T05:47:56.507Z,1.60
2022-12-13T05:50:23.291Z,2.08
2022-12-13T05:52:50.697Z,1.85
2022-12-13T05:55:18.549Z,1.85
2022-12-13T05:57:50.814Z,1.73
2022-12-13T06:00:29.574Z,2.03
2022-12-13T06:03:00.940Z,1.95
2022-12-13T06:05:29.801Z,1.70
2022-12-13T06:07:58.280Z,1.77
2022-12-13T06:10:34.156Z,1.58
2022-12-13T06:13:22.030Z,2.10
2022-12-13T06:15:51.491Z,1.40
2022-12-13T06:18:18.283Z,2.30
2022-12-13T06:20:45.093Z,2.13
2022-12-13T06:23:11.993Z,1.73
2022-12-13T06:25:39.297Z,1.60
2022-12-13T06:28:06.034Z,1.50
2022-12-13T06:30:33.297Z,1.70
2022-12-13T06:33:00.022Z,1.90
2022-12-13T06:35:28.060Z,1.98
2022-12-13T06:38:01.634Z,1.63
2022-12-13T06:40:30.281Z,1.77
2022-12-13T06:42:57.464Z,2.10
2022-12-13T06:45:24.435Z,2.20
2022-12-13T06:47:51.148Z,1.83
2022-12-13T06:50:17.853Z,1.92
2022-12-13T06:52:46.266Z,2.30
2022-12-13T06:55:13.617Z,2.08
2022-12-13T06:57:41.076Z,2.58
2022-12-13T07:00:10.151Z,1.90
2022-12-13T07:02:38.343Z,2.22
2022-12-13T07:05:05.662Z,2.17
2022-12-13T07:07:32.584Z,1.70
2022-12-13T07:09:59.354Z,1.90
2022-12-13T07:12:26.546Z,2.03
2022-12-13T07:14:53.304Z,1.92
2022-12-13T07:17:32.437Z,2.22
2022-12-13T07:20:05.192Z,2.03
2022-12-13T07:22:34.939Z,1.70
2022-12-13T07:25:03.515Z,2.13
2022-12-13T07:27:30.342Z,2.13
2022-12-13T07:29:58.057Z,1.90
2022-12-13T07:32:24.989Z,1.90
2022-12-13T07:34:51.872Z,2.30
2022-12-13T07:37:30.294Z,2.08
2022-12-13T07:40:03.389Z,2.08
2022-12-13T07:42:31.076Z,2.08
2022-12-13T07:44:57.917Z,2.45
2022-12-13T07:47:29.380Z,2.30
2022-12-13T07:49:56.292Z,2.05
2022-12-13T07:52:22.993Z,2.33
2022-12-13T07:54:49.691Z,2.30
2022-12-13T07:57:16.432Z,2.40
2022-12-13T07:59:43.117Z,1.83
2022-12-13T08:02:13.349Z,1.90
2022-12-13T08:04:40.674Z,1.70
2022-12-13T08:07:08.955Z,2.03
2022-12-13T08:09:36.003Z,2.28
2022-12-13T08:12:03.086Z,2.05
2022-12-13T08:14:29.900Z,2.20
2022-12-13T08:16:56.954Z,2.03
2022-12-13T08:19:23.810Z,2.42
2022-12-13T08:21:55.577Z,2.10
2022-12-13T08:24:28.540Z,2.42
2022-12-13T08:26:57.385Z,1.90
2022-12-13T08:29:33.533Z,2.78
2022-12-13T08:32:03.285Z,2.60
2022-12-13T08:34:30.220Z,2.33
2022-12-13T08:37:01.472Z,2.15
2022-12-13T08:39:29.062Z,2.72
2022-12-13T08:41:56.026Z,1.80
2022-12-13T08:44:22.883Z,1.70
2022-12-13T08:46:49.667Z,2.10
2022-12-13T08:49:16.558Z,2.35
2022-12-13T08:51:43.571Z,1.85
2022-12-13T08:54:11.571Z,1.92
2022-12-13T08:56:39.145Z,1.83
2022-12-13T08:59:10.554Z,2.13
2022-12-13T09:01:37.563Z,2.13
2022-12-13T09:04:04.309Z,1.85
2022-12-13T09:06:31.142Z,2.10
2022-12-13T09:08:58.343Z,1.80
2022-12-13T09:11:34.837Z,2.10
2022-12-13T09:14:13.891Z,1.92
2022-12-13T09:16:41.410Z,2.42
2022-12-13T09:19:25.384Z,1.83
2022-12-13T09:21:53.478Z,2.05
2022-12-13T09:24:29.723Z,2.28
2022-12-13T09:27:09.317Z,2.00
2022-12-13T09:29:40.257Z,1.60
2022-12-13T09:32:07.059Z,1.98
2022-12-13T09:34:33.972Z,2.17
2022-12-13T09:37:01.456Z,1.90
2022-12-13T09:39:29.430Z,2.38
2022-12-13T09:42:01.119Z,2.13
2022-12-13T09:44:43.722Z,2.22
2022-12-13T09:47:23.127Z,2.03
2022-12-13T09:49:52.724Z,2.05
2022-12-13T09:52:21.285Z,1.98
2022-12-13T09:54:49.553Z,2.33
2022-12-13T09:57:31.872Z,3.10
2022-12-13T10:02:47.139Z,2.53
2022-12-13T10:05:24.075Z,2.30
2022-12-13T10:08:07.316Z,2.25
2022-12-13T10:10:34.067Z,2.22
2022-12-13T10:13:27.834Z,1.90
2022-12-13T10:15:59.534Z,2.42
2022-12-13T10:18:41.009Z,2.28
2022-12-13T10:21:38.533Z,2.30
2022-12-13T10:24:27.241Z,2.42
2022-12-13T10:26:56.320Z,2.15
2022-12-13T10:29:23.223Z,2.03
2022-12-13T10:31:51.352Z,2.50
2022-12-13T10:34:30.697Z,2.03
2022-12-13T10:36:59.482Z,2.25
2022-12-13T10:39:40.528Z,1.77
2022-12-13T10:42:13.488Z,1.90
2022-12-13T10:44:49.759Z,2.20
2022-12-13T10:47:24.466Z,2.15
2022-12-13T10:49:59.099Z,2.35
2022-12-13T10:52:32.037Z,2.80
2022-12-13T10:55:23.267Z,2.70
2022-12-13T10:57:55.434Z,3.13
2022-12-13T11:00:40.580Z,3.00
2022-12-13T11:03:07.917Z,2.67
2022-12-13T11:05:36.150Z,2.88
2022-12-13T11:08:32.993Z,3.13
2022-12-13T11:11:01.414Z,2.97
2022-12-13T11:13:38.969Z,2.83
2022-12-13T11:16:26.314Z,3.40
2022-12-13T11:18:57.889Z,3.78
2022-12-13T11:21:33.594Z,2.40
2022-12-13T11:24:02.452Z,2.85
2022-12-13T11:26:29.495Z,3.00
2022-12-13T11:29:05.659Z,2.70
2022-12-13T11:31:43.765Z,3.00
2022-12-13T11:34:35.269Z,2.88
2022-12-13T11:37:07.429Z,2.40
2022-12-13T11:39:44.252Z,2.13
2022-12-13T11:42:19.653Z,2.25
2022-12-13T11:45:00.030Z,2.08
2022-12-13T11:47:39.498Z,2.70
2022-12-13T11:50:33.739Z,2.50
2022-12-13T11:53:25.405Z,3.00
2022-12-13T11:55:56.457Z,2.70
2022-12-13T11:59:00.670Z,3.10
2022-12-13T12:01:15.340Z,3.50
2022-12-13T12:03:48.629Z,4.13
2022-12-13T12:06:21.211Z,3.55
2022-12-13T12:08:56.304Z,4.65
2022-12-13T12:11:44.282Z,3.53
2022-12-13T12:14:24.694Z,3.22
2022-12-13T12:16:55.432Z,3.28
2022-12-13T12:19:31.603Z,3.38
2022-12-13T12:22:30.632Z,2.88
2022-12-13T12:25:22.540Z,3.08
2022-12-13T12:28:00.128Z,2.75
2022-12-13T12:30:38.776Z,3.40
2022-12-13T12:33:08.580Z,3.60
2022-12-13T12:36:12.988Z,4.15
2022-12-13T12:41:50.278Z,3.33
2022-12-13T12:44:31.373Z,3.28
2022-12-13T12:50:44.685Z,3.58
2022-12-13T12:53:20.750Z,3.03
2022-12-13T12:56:20.470Z,3.13
2022-12-13T12:58:56.864Z,3.20
2022-12-13T13:01:43.391Z,3.22
2022-12-13T13:04:11.916Z,2.85
2022-12-13T13:06:47.475Z,2.97
2022-12-13T13:09:17.433Z,3.10
2022-12-13T13:11:57.290Z,3.00
2022-12-13T13:14:30.579Z,4.00
2022-12-13T13:16:58.946Z,3.43
2022-12-13T13:19:31.774Z,2.97
2022-12-13T13:22:02.637Z,2.45
2022-12-13T13:24:30.170Z,3.00
2022-12-13T13:27:17.811Z,3.47
2022-12-13T13:29:44.587Z,3.40
2022-12-13T13:32:11.324Z,3.33
2022-12-13T13:34:39.913Z,3.45
2022-12-13T13:37:23.197Z,4.10
2022-12-13T13:39:53.521Z,3.55
2022-12-13T13:42:24.230Z,3.00
2022-12-13T13:44:54.399Z,3.30
2022-12-13T13:47:22.172Z,3.47
2022-12-13T13:50:13.094Z,3.65
2022-12-13T13:53:01.209Z,3.90
2022-12-13T13:55:37.359Z,3.63
2022-12-13T13:58:21.549Z,4.78
2022-12-13T14:01:11.007Z,3.97
2022-12-13T14:04:15.511Z,3.05
2022-12-13T14:06:47.829Z,4.22
2022-12-13T14:09:38.500Z,3.70
2022-12-13T14:12:27.079Z,3.60
2022-12-13T14:15:01.490Z,4.88
2022-12-13T14:18:10.113Z,4.78
2022-12-13T14:20:44.126Z,4.47
2022-12-13T14:23:48.875Z,4.35
2022-12-13T14:26:53.893Z,4.30
2022-12-13T14:29:25.575Z,4.45
2022-12-13T14:31:52.532Z,3.92
2022-12-13T14:34:26.124Z,3.75
2022-12-13T14:39:34.694Z,2.95
2022-12-13T14:42:02.441Z,4.22
2022-12-13T14:44:30.964Z,3.92
2022-12-13T14:47:02.672Z,3.80
2022-12-13T14:49:31.302Z,3.30
2022-12-13T14:52:03.639Z,3.58
2022-12-13T14:54:39.612Z,3.67
2022-12-13T14:57:06.450Z,3.28
2022-12-13T14:59:33.683Z,3.67
2022-12-13T15:02:03.068Z,3.00
2022-12-13T15:04:30.944Z,2.92
2022-12-13T15:07:21.225Z,3.42
2022-12-13T15:09:48.046Z,3.10
2022-12-13T15:12:24.701Z,3.53
2022-12-13T15:15:24.801Z,3.10
2022-12-13T15:18:15.655Z,2.80
2022-12-13T15:20:43.161Z,2.30
2022-12-13T15:23:18.745Z,2.63
2022-12-13T15:25:45.710Z,2.22
2022-12-13T15:28:16.859Z,2.80
2022-12-13T15:30:45.007Z,2.47
2022-12-13T15:33:21.243Z,2.83
2022-12-13T15:35:48.826Z,2.50
2022-12-13T15:38:28.327Z,2.50
2022-12-13T15:40:55.954Z,2.28
2022-12-13T15:43:37.305Z,2.55
2022-12-13T15:46:06.748Z,2.47
2022-12-13T15:48:37.947Z,2.15
2022-12-13T15:51:28.945Z,2.47
2022-12-13T15:54:09.795Z,1.92
2022-12-13T15:56:36.530Z,2.13
2022-12-13T15:59:04.433Z,2.00
2022-12-13T16:01:35.912Z,2.30
2022-12-13T16:04:03.824Z,2.60
2022-12-13T16:06:31.667Z,1.95
2022-12-13T16:09:03.020Z,2.00
2022-12-13T16:11:34.948Z,2.70
2022-12-13T16:14:33.166Z,2.40
2022-12-13T16:17:10.679Z,1.70
2022-12-13T16:19:37.470Z,2.20
2022-12-13T16:22:08.989Z,1.90
2022-12-13T16:24:36.238Z,1.98
2022-12-13T16:27:08.524Z,2.00
2022-12-13T16:29:35.773Z,2.13
2022-12-13T16:32:08.109Z,2.15
2022-12-13T16:34:36.160Z,1.98
2022-12-13T16:37:03.222Z,2.10
2022-12-13T16:39:35.947Z,2.08
2022-12-13T16:42:03.043Z,2.13
2022-12-13T16:44:38.857Z,2.08
2022-12-13T16:47:12.704Z,2.17
2022-12-13T16:49:45.707Z,2.20
2022-12-13T16:52:12.427Z,2.30
2022-12-13T16:54:39.190Z,2.47
2022-12-13T16:57:06.147Z,2.58
2022-12-13T16:59:32.798Z,2.53
2022-12-13T17:01:59.561Z,2.10
2022-12-13T17:04:29.566Z,2.53
2022-12-13T17:06:56.554Z,2.60
2022-12-13T17:09:23.318Z,2.67
2022-12-13T17:11:50.024Z,3.20
2022-12-13T17:14:16.688Z,2.40
2022-12-13T17:16:44.649Z,2.50
2022-12-13T17:19:12.105Z,2.88
2022-12-13T17:21:38.874Z,3.05
2022-12-13T17:24:05.913Z,2.65
2022-12-13T17:26:32.677Z,2.55
2022-12-13T17:28:59.460Z,2.95
2022-12-13T17:31:33.306Z,3.00
2022-12-13T17:34:02.742Z,2.40
2022-12-13T17:36:31.357Z,2.45
2022-12-13T17:38:58.147Z,2.47
2022-12-13T17:41:24.940Z,2.08
2022-12-13T17:43:51.701Z,2.22
2022-12-13T17:46:18.939Z,2.40
2022-12-13T17:48:45.838Z,2.05
2022-12-13T17:51:13.144Z,2.45
2022-12-13T17:53:40.406Z,3.00
2022-12-13T17:56:08.422Z,2.60
2022-12-13T17:58:35.362Z,2.17
2022-12-13T18:01:11.698Z,2.20
2022-12-13T18:03:38.581Z,2.22
2022-12-13T18:06:07.180Z,2.40
2022-12-13T18:08:37.874Z,2.10
2022-12-13T18:13:54.510Z,2.55
2022-12-13T18:16:22.475Z,2.55
2022-12-13T18:18:54.734Z,2.50
2022-12-13T18:21:23.364Z,2.30
2022-12-13T18:23:55.131Z,2.40
2022-12-13T18:26:22.923Z,2.40
2022-12-13T18:28:49.668Z,2.35
2022-12-13T18:31:18.648Z,2.50
2022-12-13T18:33:47.755Z,2.53
2022-12-13T18:36:16.476Z,2.47
2022-12-13T18:38:43.236Z,2.42
2022-12-13T18:41:14.921Z,2.55
2022-12-13T18:43:42.878Z,3.03
2022-12-13T18:46:10.045Z,3.05
2022-12-13T18:48:36.993Z,3.13
2022-12-13T18:51:05.841Z,3.20
2022-12-13T18:53:33.324Z,3.50
2022-12-13T18:56:01.675Z,3.22
2022-12-13T18:58:28.567Z,2.83
2022-12-13T19:00:57.505Z,3.22
2022-12-13T19:03:26.114Z,2.80
2022-12-13T19:05:54.007Z,2.35
2022-12-13T19:08:26.157Z,3.10
2022-12-13T19:10:54.533Z,2.60
2022-12-13T19:13:23.000Z,2.50
2022-12-13T19:15:55.335Z,2.58
2022-12-13T19:18:22.013Z,3.42
2022-12-13T19:20:50.656Z,2.63
2022-12-13T19:23:18.246Z,2.40
2022-12-13T19:25:48.707Z,2.80
2022-12-13T19:28:17.775Z,2.35
2022-12-13T19:30:48.398Z,2.38
2022-12-13T19:33:15.881Z,3.15
2022-12-13T19:35:43.372Z,2.90
2022-12-13T19:38:10.345Z,2.47
2022-12-13T19:40:42.119Z,2.53
2022-12-13T19:43:09.271Z,2.55
2022-12-13T19:45:36.902Z,2.45
2022-12-13T19:48:03.867Z,3.15
2022-12-13T19:50:33.095Z,2.88
2022-12-13T19:53:00.455Z,2.38
2022-12-13T19:55:27.247Z,2.45
2022-12-13T19:57:54.219Z,2.42
2022-12-13T20:00:21.202Z,2.30
2022-12-13T20:02:48.061Z,2.45
2022-12-13T20:05:15.190Z,2.40
2022-12-13T20:07:43.478Z,2.58
2022-12-13T20:10:10.569Z,2.50
2022-12-13T20:12:40.859Z,2.33
2022-12-13T20:15:08.587Z,2.38
2022-12-13T20:17:35.622Z,2.83
2022-12-13T20:20:04.331Z,2.22
2022-12-13T20:22:32.178Z,2.13
2022-12-13T20:25:00.455Z,2.50
2022-12-13T20:27:27.417Z,2.28
2022-12-13T20:29:54.836Z,2.15
2022-12-13T20:32:24.251Z,2.67
2022-12-13T20:34:54.720Z,1.80
2022-12-13T20:37:22.229Z,1.85
2022-12-13T20:39:50.121Z,2.38
2022-12-13T20:42:17.414Z,2.38
2022-12-13T20:44:45.126Z,2.65
2022-12-13T20:47:11.930Z,2.80
2022-12-13T20:49:40.432Z,2.60
2022-12-13T20:52:08.258Z,2.33
2022-12-13T20:54:36.435Z,2.75
2022-12-13T20:57:03.387Z,2.53
2022-12-13T20:59:34.180Z,3.03
2022-12-13T21:02:01.224Z,2.88
2022-12-13T21:04:28.226Z,2.75
2022-12-13T21:06:54.931Z,2.97
2022-12-13T21:09:21.734Z,2.92
2022-12-13T21:11:51.773Z,2.97
2022-12-13T21:14:25.965Z,2.70
2022-12-13T21:17:04.639Z,2.78
2022-12-13T21:19:39.872Z,2.33
2022-12-13T21:22:07.164Z,2.70
2022-12-13T21:24:35.006Z,2.90
2022-12-13T21:27:02.020Z,3.85
2022-12-13T21:29:28.838Z,3.08
2022-12-13T21:31:56.091Z,3.03
2022-12-13T21:34:23.340Z,2.65
2022-12-13T21:36:52.468Z,2.75
2022-12-13T21:39:22.730Z,2.53
2022-12-13T21:41:50.508Z,2.55
2022-12-13T21:44:17.903Z,2.33
2022-12-13T21:47:11.502Z,2.58
2022-12-13T21:49:32.295Z,2.33
2022-12-13T21:51:59.337Z,2.63
2022-12-13T21:54:26.511Z,2.60
2022-12-13T21:57:12.362Z,2.78
2022-12-13T21:59:40.026Z,2.60
2022-12-13T22:02:20.146Z,2.47
2022-12-13T22:04:46.936Z,2.40
2022-12-13T22:07:22.658Z,2.78
2022-12-13T22:09:50.147Z,2.22
2022-12-13T22:12:41.931Z,2.60
2022-12-13T22:15:13.151Z,2.75
2022-12-13T22:17:40.238Z,2.30
2022-12-13T22:20:13.255Z,2.70
2022-12-13T22:22:40.859Z,2.80
2022-12-13T22:25:08.359Z,2.83
2022-12-13T22:27:36.948Z,2.30
2022-12-13T22:30:04.191Z,2.90
2022-12-13T22:32:31.369Z,2.30
2022-12-13T22:34:58.197Z,3.05
2022-12-13T22:37:25.040Z,2.92
2022-12-13T22:39:52.443Z,2.90
2022-12-13T22:42:19.649Z,3.45
2022-12-13T22:44:46.451Z,3.28
2022-12-13T22:47:13.187Z,3.63
2022-12-13T22:49:40.257Z,2.90
2022-12-13T22:52:07.077Z,2.60
2022-12-13T22:54:33.927Z,2.72
2022-12-13T22:57:00.742Z,2.80
2022-12-13T22:59:27.648Z,3.22
2022-12-13T23:02:02.086Z,2.20
2022-12-13T23:04:29.909Z,2.70
2022-12-13T23:06:56.679Z,2.70
2022-12-13T23:09:23.386Z,2.53
2022-12-13T23:12:08.617Z,2.33
2022-12-13T23:14:35.558Z,2.83
2022-12-13T23:17:02.814Z,3.05
2022-12-13T23:19:48.723Z,2.58
2022-12-13T23:22:16.829Z,2.83
2022-12-13T23:24:43.556Z,2.60
2022-12-13T23:27:10.281Z,2.20
2022-12-13T23:29:37.177Z,2.35
2022-12-13T23:32:04.447Z,2.25
2022-12-13T23:34:32.521Z,2.35
2022-12-13T23:36:59.334Z,2.53
2022-12-13T23:39:26.111Z,2.45
2022-12-13T23:41:53.321Z,2.22
2022-12-13T23:44:20.028Z,2.63
2022-12-13T23:46:48.569Z,2.40
2022-12-13T23:49:15.893Z,2.35
2022-12-13T23:51:42.662Z,2.10
2022-12-13T23:54:14.562Z,2.25
2022-12-13T23:56:49.938Z,2.30
2022-12-13T23:59:16.763Z,2.15
